sensor_id;sensor_type;location;lat;lon;timestamp;P1;durP1;ratioP1;P2;durP2;ratioP2
20014;SDS011;61787;42.022;23.078;2023-04-25T00:01:01;6.53;;;5.97;;
20014;SDS011;61787;42.022;23.078;2023-04-25T00:02:04;8.17;;;6.43;;
20014;SDS011;61787;42.022;23.078;2023-04-25T00:03:06;7.90;;;6.47;;
20014;SDS011;61787;42.022;23.078;2023-04-25T00:04:10;6.97;;;6.27;;
20014;SDS011;61787;42.022;23.078;2023-04-25T00:05:13;6.80;;;6.10;;
20014;SDS011;61787;42.022;23.078;2023-04-25T00:06:16;9.37;;;6.83;;
20014;SDS011;61787;42.022;23.078;2023-04-25T00:07:19;9.50;;;6.90;;
20014;SDS011;61787;42.022;23.078;2023-04-25T00:08:20;7.57;;;6.13;;
20014;SDS011;61787;42.022;23.078;2023-04-25T00:09:22;7.17;;;6.20;;
20014;SDS011;61787;42.022;23.078;2023-04-25T00:10:23;6.17;;;5.67;;
20014;SDS011;61787;42.022;23.078;2023-04-25T00:11:25;6.60;;;6.00;;
20014;SDS011;61787;42.022;23.078;2023-04-25T00:12:27;7.47;;;5.83;;
20014;SDS011;61787;42.022;23.078;2023-04-25T00:13:29;6.77;;;6.03;;
20014;SDS011;61787;42.022;23.078;2023-04-25T00:14:31;6.73;;;6.03;;
20014;SDS011;61787;42.022;23.078;2023-04-25T00:15:35;7.20;;;5.57;;
20014;SDS011;61787;42.022;23.078;2023-04-25T00:16:38;7.70;;;6.07;;
20014;SDS011;61787;42.022;23.078;2023-04-25T00:17:42;8.90;;;5.47;;
20014;SDS011;61787;42.022;23.078;2023-04-25T00:18:44;6.20;;;5.60;;
20014;SDS011;61787;42.022;23.078;2023-04-25T00:19:47;6.30;;;5.70;;
20014;SDS011;61787;42.022;23.078;2023-04-25T00:20:49;6.30;;;5.70;;
20014;SDS011;61787;42.022;23.078;2023-04-25T00:21:51;5.97;;;5.37;;
20014;SDS011;61787;42.022;23.078;2023-04-25T00:22:52;8.10;;;5.60;;
20014;SDS011;61787;42.022;23.078;2023-04-25T00:23:55;6.13;;;5.63;;
20014;SDS011;61787;42.022;23.078;2023-04-25T00:24:57;7.37;;;5.90;;
20014;SDS011;61787;42.022;23.078;2023-04-25T00:26:01;8.13;;;6.13;;
20014;SDS011;61787;42.022;23.078;2023-04-25T00:27:03;6.90;;;6.03;;
20014;SDS011;61787;42.022;23.078;2023-04-25T00:28:05;6.93;;;6.23;;
20014;SDS011;61787;42.022;23.078;2023-04-25T00:29:06;8.03;;;5.77;;
20014;SDS011;61787;42.022;23.078;2023-04-25T00:30:08;8.23;;;6.30;;
20014;SDS011;61787;42.022;23.078;2023-04-25T00:31:10;7.00;;;5.63;;
20014;SDS011;61787;42.022;23.078;2023-04-25T00:32:11;6.83;;;6.10;;
20014;SDS011;61787;42.022;23.078;2023-04-25T00:33:13;7.30;;;6.27;;
20014;SDS011;61787;42.022;23.078;2023-04-25T00:34:15;8.17;;;6.27;;
20014;SDS011;61787;42.022;23.078;2023-04-25T00:35:16;9.20;;;6.50;;
20014;SDS011;61787;42.022;23.078;2023-04-25T00:36:18;6.53;;;5.93;;
20014;SDS011;61787;42.022;23.078;2023-04-25T00:37:19;8.17;;;6.17;;
20014;SDS011;61787;42.022;23.078;2023-04-25T00:38:21;7.50;;;6.70;;
20014;SDS011;61787;42.022;23.078;2023-04-25T00:39:23;8.20;;;6.90;;
20014;SDS011;61787;42.022;23.078;2023-04-25T00:40:24;9.67;;;7.57;;
20014;SDS011;61787;42.022;23.078;2023-04-25T00:41:26;8.57;;;6.90;;
20014;SDS011;61787;42.022;23.078;2023-04-25T00:42:28;9.60;;;7.10;;
20014;SDS011;61787;42.022;23.078;2023-04-25T00:43:31;10.67;;;7.83;;
20014;SDS011;61787;42.022;23.078;2023-04-25T00:44:33;8.33;;;7.03;;
20014;SDS011;61787;42.022;23.078;2023-04-25T00:45:38;7.60;;;6.80;;
20014;SDS011;61787;42.022;23.078;2023-04-25T00:46:40;8.37;;;6.93;;
20014;SDS011;61787;42.022;23.078;2023-04-25T00:47:44;8.43;;;6.27;;
20014;SDS011;61787;42.022;23.078;2023-04-25T00:48:46;6.30;;;5.70;;
20014;SDS011;61787;42.022;23.078;2023-04-25T00:49:48;5.93;;;5.33;;
20014;SDS011;61787;42.022;23.078;2023-04-25T00:50:53;6.37;;;5.00;;
20014;SDS011;61787;42.022;23.078;2023-04-25T00:51:56;6.13;;;4.70;;
20014;SDS011;61787;42.022;23.078;2023-04-25T00:52:58;5.70;;;4.80;;
20014;SDS011;61787;42.022;23.078;2023-04-25T00:53:59;5.13;;;4.40;;
20014;SDS011;61787;42.022;23.078;2023-04-25T00:55:02;4.47;;;4.07;;
20014;SDS011;61787;42.022;23.078;2023-04-25T00:56:04;7.23;;;4.93;;
20014;SDS011;61787;42.022;23.078;2023-04-25T00:57:07;7.67;;;5.10;;
20014;SDS011;61787;42.022;23.078;2023-04-25T00:58:08;5.83;;;4.53;;
20014;SDS011;61787;42.022;23.078;2023-04-25T00:59:10;5.00;;;3.60;;
20014;SDS011;61787;42.022;23.078;2023-04-25T01:00:12;4.30;;;3.90;;
20014;SDS011;61787;42.022;23.078;2023-04-25T01:01:15;6.33;;;4.07;;
20014;SDS011;61787;42.022;23.078;2023-04-25T01:02:18;5.67;;;4.33;;
20014;SDS011;61787;42.022;23.078;2023-04-25T01:03:21;3.90;;;3.50;;
20014;SDS011;61787;42.022;23.078;2023-04-25T01:04:23;3.80;;;3.50;;
20014;SDS011;61787;42.022;23.078;2023-04-25T01:05:25;4.70;;;3.50;;
20014;SDS011;61787;42.022;23.078;2023-04-25T01:06:26;3.93;;;3.53;;
20014;SDS011;61787;42.022;23.078;2023-04-25T01:07:28;4.10;;;3.40;;
20014;SDS011;61787;42.022;23.078;2023-04-25T01:08:30;4.03;;;3.40;;
20014;SDS011;61787;42.022;23.078;2023-04-25T01:09:32;6.93;;;3.53;;
20014;SDS011;61787;42.022;23.078;2023-04-25T01:10:34;4.00;;;3.60;;
20014;SDS011;61787;42.022;23.078;2023-04-25T01:11:36;5.07;;;3.70;;
20014;SDS011;61787;42.022;23.078;2023-04-25T01:12:38;4.47;;;4.07;;
20014;SDS011;61787;42.022;23.078;2023-04-25T01:13:40;5.37;;;3.70;;
20014;SDS011;61787;42.022;23.078;2023-04-25T01:14:41;4.13;;;3.77;;
20014;SDS011;61787;42.022;23.078;2023-04-25T01:15:43;4.47;;;4.07;;
20014;SDS011;61787;42.022;23.078;2023-04-25T01:16:45;4.10;;;3.70;;
20014;SDS011;61787;42.022;23.078;2023-04-25T01:17:46;6.37;;;4.17;;
20014;SDS011;61787;42.022;23.078;2023-04-25T01:18:50;4.30;;;3.90;;
20014;SDS011;61787;42.022;23.078;2023-04-25T01:19:52;4.30;;;4.00;;
20014;SDS011;61787;42.022;23.078;2023-04-25T01:20:54;4.30;;;3.90;;
20014;SDS011;61787;42.022;23.078;2023-04-25T01:21:56;5.20;;;4.70;;
20014;SDS011;61787;42.022;23.078;2023-04-25T01:22:58;4.63;;;4.23;;
20014;SDS011;61787;42.022;23.078;2023-04-25T01:24:01;4.20;;;3.80;;
20014;SDS011;61787;42.022;23.078;2023-04-25T01:25:03;4.40;;;4.00;;
20014;SDS011;61787;42.022;23.078;2023-04-25T01:26:09;4.90;;;4.10;;
20014;SDS011;61787;42.022;23.078;2023-04-25T01:27:11;6.53;;;4.43;;
20014;SDS011;61787;42.022;23.078;2023-04-25T01:28:13;5.50;;;4.90;;
20014;SDS011;61787;42.022;23.078;2023-04-25T01:29:16;5.73;;;4.20;;
20014;SDS011;61787;42.022;23.078;2023-04-25T01:30:19;4.57;;;4.00;;
20014;SDS011;61787;42.022;23.078;2023-04-25T01:31:20;3.83;;;3.47;;
20014;SDS011;61787;42.022;23.078;2023-04-25T01:32:22;4.27;;;3.77;;
20014;SDS011;61787;42.022;23.078;2023-04-25T01:33:25;3.97;;;3.67;;
20014;SDS011;61787;42.022;23.078;2023-04-25T01:34:26;5.53;;;4.10;;
20014;SDS011;61787;42.022;23.078;2023-04-25T01:35:28;4.43;;;4.03;;
20014;SDS011;61787;42.022;23.078;2023-04-25T01:36:30;3.97;;;3.67;;
20014;SDS011;61787;42.022;23.078;2023-04-25T01:37:32;5.07;;;4.20;;
20014;SDS011;61787;42.022;23.078;2023-04-25T01:38:34;4.03;;;3.73;;
20014;SDS011;61787;42.022;23.078;2023-04-25T01:39:36;4.23;;;3.70;;
20014;SDS011;61787;42.022;23.078;2023-04-25T01:40:38;5.23;;;4.07;;
20014;SDS011;61787;42.022;23.078;2023-04-25T01:41:41;4.10;;;3.70;;
20014;SDS011;61787;42.022;23.078;2023-04-25T01:42:44;6.23;;;3.13;;
20014;SDS011;61787;42.022;23.078;2023-04-25T01:43:46;5.17;;;3.43;;
20014;SDS011;61787;42.022;23.078;2023-04-25T01:44:49;3.60;;;3.30;;
20014;SDS011;61787;42.022;23.078;2023-04-25T01:45:50;3.97;;;3.67;;
20014;SDS011;61787;42.022;23.078;2023-04-25T01:46:53;3.87;;;3.43;;
20014;SDS011;61787;42.022;23.078;2023-04-25T01:47:55;3.90;;;3.50;;
20014;SDS011;61787;42.022;23.078;2023-04-25T01:49:00;3.87;;;3.40;;
20014;SDS011;61787;42.022;23.078;2023-04-25T01:50:03;3.50;;;3.20;;
20014;SDS011;61787;42.022;23.078;2023-04-25T01:51:05;5.20;;;3.50;;
20014;SDS011;61787;42.022;23.078;2023-04-25T01:52:07;4.00;;;3.60;;
20014;SDS011;61787;42.022;23.078;2023-04-25T01:53:09;3.90;;;3.47;;
20014;SDS011;61787;42.022;23.078;2023-04-25T01:54:13;4.57;;;3.37;;
20014;SDS011;61787;42.022;23.078;2023-04-25T01:55:14;4.07;;;3.67;;
20014;SDS011;61787;42.022;23.078;2023-04-25T01:56:17;3.63;;;3.33;;
20014;SDS011;61787;42.022;23.078;2023-04-25T01:57:19;4.00;;;3.70;;
20014;SDS011;61787;42.022;23.078;2023-04-25T01:58:21;4.00;;;3.60;;
20014;SDS011;61787;42.022;23.078;2023-04-25T01:59:22;3.77;;;3.47;;
20014;SDS011;61787;42.022;23.078;2023-04-25T02:00:24;4.70;;;4.10;;
20014;SDS011;61787;42.022;23.078;2023-04-25T02:01:26;4.67;;;4.03;;
20014;SDS011;61787;42.022;23.078;2023-04-25T02:02:28;4.87;;;4.23;;
20014;SDS011;61787;42.022;23.078;2023-04-25T02:03:30;4.80;;;4.07;;
20014;SDS011;61787;42.022;23.078;2023-04-25T02:04:33;4.73;;;3.90;;
20014;SDS011;61787;42.022;23.078;2023-04-25T02:05:35;5.27;;;4.00;;
20014;SDS011;61787;42.022;23.078;2023-04-25T02:06:38;3.67;;;3.37;;
20014;SDS011;61787;42.022;23.078;2023-04-25T02:07:39;4.30;;;3.53;;
20014;SDS011;61787;42.022;23.078;2023-04-25T02:08:41;3.47;;;3.17;;
20014;SDS011;61787;42.022;23.078;2023-04-25T02:09:42;3.10;;;2.80;;
20014;SDS011;61787;42.022;23.078;2023-04-25T02:10:44;4.47;;;3.00;;
20014;SDS011;61787;42.022;23.078;2023-04-25T02:11:45;3.23;;;2.93;;
20014;SDS011;61787;42.022;23.078;2023-04-25T02:12:47;2.50;;;2.30;;
20014;SDS011;61787;42.022;23.078;2023-04-25T02:13:49;4.53;;;3.10;;
20014;SDS011;61787;42.022;23.078;2023-04-25T02:14:51;3.40;;;3.10;;
20014;SDS011;61787;42.022;23.078;2023-04-25T02:15:52;4.70;;;2.83;;
20014;SDS011;61787;42.022;23.078;2023-04-25T02:16:54;2.80;;;2.60;;
20014;SDS011;61787;42.022;23.078;2023-04-25T02:17:56;5.43;;;2.80;;
20014;SDS011;61787;42.022;23.078;2023-04-25T02:18:59;2.57;;;2.37;;
20014;SDS011;61787;42.022;23.078;2023-04-25T02:20:01;3.07;;;2.47;;
20014;SDS011;61787;42.022;23.078;2023-04-25T02:21:03;2.80;;;2.50;;
20014;SDS011;61787;42.022;23.078;2023-04-25T02:22:04;3.23;;;2.90;;
20014;SDS011;61787;42.022;23.078;2023-04-25T02:23:06;4.37;;;2.67;;
20014;SDS011;61787;42.022;23.078;2023-04-25T02:24:07;3.07;;;2.60;;
20014;SDS011;61787;42.022;23.078;2023-04-25T02:25:10;3.43;;;3.00;;
20014;SDS011;61787;42.022;23.078;2023-04-25T02:26:12;2.97;;;2.67;;
20014;SDS011;61787;42.022;23.078;2023-04-25T02:27:14;3.07;;;2.77;;
20014;SDS011;61787;42.022;23.078;2023-04-25T02:28:16;2.93;;;2.73;;
20014;SDS011;61787;42.022;23.078;2023-04-25T02:29:18;3.63;;;2.70;;
20014;SDS011;61787;42.022;23.078;2023-04-25T02:30:19;2.77;;;2.57;;
20014;SDS011;61787;42.022;23.078;2023-04-25T02:31:21;3.37;;;2.93;;
20014;SDS011;61787;42.022;23.078;2023-04-25T02:32:23;3.50;;;2.93;;
20014;SDS011;61787;42.022;23.078;2023-04-25T02:33:24;3.70;;;3.40;;
20014;SDS011;61787;42.022;23.078;2023-04-25T02:34:26;4.77;;;3.40;;
20014;SDS011;61787;42.022;23.078;2023-04-25T02:35:27;3.47;;;3.10;;
20014;SDS011;61787;42.022;23.078;2023-04-25T02:36:29;3.33;;;3.00;;
20014;SDS011;61787;42.022;23.078;2023-04-25T02:37:34;3.07;;;2.77;;
20014;SDS011;61787;42.022;23.078;2023-04-25T02:38:36;4.97;;;3.00;;
20014;SDS011;61787;42.022;23.078;2023-04-25T02:39:38;2.87;;;2.60;;
20014;SDS011;61787;42.022;23.078;2023-04-25T02:40:40;3.03;;;2.73;;
20014;SDS011;61787;42.022;23.078;2023-04-25T02:41:41;3.70;;;3.40;;
20014;SDS011;61787;42.022;23.078;2023-04-25T02:42:43;3.40;;;3.10;;
20014;SDS011;61787;42.022;23.078;2023-04-25T02:43:47;4.50;;;3.20;;
20014;SDS011;61787;42.022;23.078;2023-04-25T02:44:49;3.60;;;3.30;;
20014;SDS011;61787;42.022;23.078;2023-04-25T02:45:51;4.07;;;3.03;;
20014;SDS011;61787;42.022;23.078;2023-04-25T02:46:52;3.73;;;3.20;;
20014;SDS011;61787;42.022;23.078;2023-04-25T02:47:54;4.17;;;3.30;;
20014;SDS011;61787;42.022;23.078;2023-04-25T02:48:56;5.43;;;3.40;;
20014;SDS011;61787;42.022;23.078;2023-04-25T02:49:57;3.70;;;3.30;;
20014;SDS011;61787;42.022;23.078;2023-04-25T02:50:59;5.43;;;3.47;;
20014;SDS011;61787;42.022;23.078;2023-04-25T02:52:01;3.67;;;3.30;;
20014;SDS011;61787;42.022;23.078;2023-04-25T02:53:02;3.67;;;3.37;;
20014;SDS011;61787;42.022;23.078;2023-04-25T02:54:04;4.03;;;3.57;;
20014;SDS011;61787;42.022;23.078;2023-04-25T02:55:06;4.10;;;3.77;;
20014;SDS011;61787;42.022;23.078;2023-04-25T02:56:08;4.53;;;3.93;;
20014;SDS011;61787;42.022;23.078;2023-04-25T02:57:09;4.97;;;3.80;;
20014;SDS011;61787;42.022;23.078;2023-04-25T02:58:11;4.30;;;3.90;;
20014;SDS011;61787;42.022;23.078;2023-04-25T02:59:12;4.70;;;3.83;;
20014;SDS011;61787;42.022;23.078;2023-04-25T03:00:14;6.27;;;3.80;;
20014;SDS011;61787;42.022;23.078;2023-04-25T03:01:16;5.60;;;4.10;;
20014;SDS011;61787;42.022;23.078;2023-04-25T03:02:17;5.93;;;3.90;;
20014;SDS011;61787;42.022;23.078;2023-04-25T03:03:19;4.07;;;3.70;;
20014;SDS011;61787;42.022;23.078;2023-04-25T03:04:23;7.37;;;3.70;;
20014;SDS011;61787;42.022;23.078;2023-04-25T03:05:28;4.10;;;3.70;;
20014;SDS011;61787;42.022;23.078;2023-04-25T03:06:29;4.20;;;3.90;;
20014;SDS011;61787;42.022;23.078;2023-04-25T03:07:32;5.40;;;4.20;;
20014;SDS011;61787;42.022;23.078;2023-04-25T03:08:33;6.73;;;4.20;;
20014;SDS011;61787;42.022;23.078;2023-04-25T03:09:35;6.00;;;4.60;;
20014;SDS011;61787;42.022;23.078;2023-04-25T03:10:37;4.93;;;4.43;;
20014;SDS011;61787;42.022;23.078;2023-04-25T03:11:39;7.00;;;4.50;;
20014;SDS011;61787;42.022;23.078;2023-04-25T03:12:41;5.17;;;4.67;;
20014;SDS011;61787;42.022;23.078;2023-04-25T03:13:42;4.47;;;3.93;;
20014;SDS011;61787;42.022;23.078;2023-04-25T03:14:44;6.37;;;4.73;;
20014;SDS011;61787;42.022;23.078;2023-04-25T03:15:45;4.97;;;4.27;;
20014;SDS011;61787;42.022;23.078;2023-04-25T03:16:47;4.93;;;4.43;;
20014;SDS011;61787;42.022;23.078;2023-04-25T03:17:48;5.67;;;4.47;;
20014;SDS011;61787;42.022;23.078;2023-04-25T03:18:50;6.30;;;4.97;;
20014;SDS011;61787;42.022;23.078;2023-04-25T03:19:52;4.83;;;4.30;;
20014;SDS011;61787;42.022;23.078;2023-04-25T03:20:53;6.93;;;4.67;;
20014;SDS011;61787;42.022;23.078;2023-04-25T03:21:55;7.43;;;5.00;;
20014;SDS011;61787;42.022;23.078;2023-04-25T03:22:57;5.03;;;4.50;;
20014;SDS011;61787;42.022;23.078;2023-04-25T03:23:59;5.63;;;5.10;;
20014;SDS011;61787;42.022;23.078;2023-04-25T03:25:01;6.77;;;4.83;;
20014;SDS011;61787;42.022;23.078;2023-04-25T03:26:03;5.90;;;5.30;;
20014;SDS011;61787;42.022;23.078;2023-04-25T03:27:05;6.80;;;5.13;;
20014;SDS011;61787;42.022;23.078;2023-04-25T03:28:07;6.50;;;5.73;;
20014;SDS011;61787;42.022;23.078;2023-04-25T03:29:08;7.30;;;5.67;;
20014;SDS011;61787;42.022;23.078;2023-04-25T03:30:10;7.50;;;5.73;;
20014;SDS011;61787;42.022;23.078;2023-04-25T03:31:12;5.70;;;5.13;;
20014;SDS011;61787;42.022;23.078;2023-04-25T03:32:14;7.07;;;5.13;;
20014;SDS011;61787;42.022;23.078;2023-04-25T03:33:16;6.00;;;5.40;;
20014;SDS011;61787;42.022;23.078;2023-04-25T03:34:17;6.53;;;5.87;;
20014;SDS011;61787;42.022;23.078;2023-04-25T03:35:19;6.63;;;5.90;;
20014;SDS011;61787;42.022;23.078;2023-04-25T03:36:21;7.93;;;5.67;;
20014;SDS011;61787;42.022;23.078;2023-04-25T03:37:23;5.57;;;5.03;;
20014;SDS011;61787;42.022;23.078;2023-04-25T03:38:24;5.63;;;5.07;;
20014;SDS011;61787;42.022;23.078;2023-04-25T03:39:26;5.80;;;5.30;;
20014;SDS011;61787;42.022;23.078;2023-04-25T03:40:28;6.77;;;5.63;;
20014;SDS011;61787;42.022;23.078;2023-04-25T03:41:29;7.80;;;5.27;;
20014;SDS011;61787;42.022;23.078;2023-04-25T03:42:31;5.80;;;5.20;;
20014;SDS011;61787;42.022;23.078;2023-04-25T03:43:32;6.30;;;5.17;;
20014;SDS011;61787;42.022;23.078;2023-04-25T03:44:34;5.37;;;4.87;;
20014;SDS011;61787;42.022;23.078;2023-04-25T03:45:36;6.10;;;5.40;;
20014;SDS011;61787;42.022;23.078;2023-04-25T03:46:37;6.30;;;5.20;;
20014;SDS011;61787;42.022;23.078;2023-04-25T03:47:39;5.87;;;5.07;;
20014;SDS011;61787;42.022;23.078;2023-04-25T03:48:40;5.63;;;5.03;;
20014;SDS011;61787;42.022;23.078;2023-04-25T03:49:42;6.63;;;5.53;;
20014;SDS011;61787;42.022;23.078;2023-04-25T03:50:44;5.93;;;5.33;;
20014;SDS011;61787;42.022;23.078;2023-04-25T03:51:45;5.53;;;4.90;;
20014;SDS011;61787;42.022;23.078;2023-04-25T03:52:47;5.83;;;5.30;;
20014;SDS011;61787;42.022;23.078;2023-04-25T03:53:49;5.30;;;4.90;;
20014;SDS011;61787;42.022;23.078;2023-04-25T03:54:51;5.27;;;4.63;;
20014;SDS011;61787;42.022;23.078;2023-04-25T03:55:52;5.10;;;4.60;;
20014;SDS011;61787;42.022;23.078;2023-04-25T03:56:54;8.73;;;5.83;;
20014;SDS011;61787;42.022;23.078;2023-04-25T03:57:55;6.60;;;5.80;;
20014;SDS011;61787;42.022;23.078;2023-04-25T03:58:59;5.97;;;4.87;;
20014;SDS011;61787;42.022;23.078;2023-04-25T04:00:00;5.53;;;5.03;;
20014;SDS011;61787;42.022;23.078;2023-04-25T04:01:02;6.47;;;5.80;;
20014;SDS011;61787;42.022;23.078;2023-04-25T04:02:08;6.00;;;4.90;;
20014;SDS011;61787;42.022;23.078;2023-04-25T04:03:10;6.47;;;5.70;;
20014;SDS011;61787;42.022;23.078;2023-04-25T04:04:12;6.00;;;5.40;;
20014;SDS011;61787;42.022;23.078;2023-04-25T04:05:14;6.90;;;5.93;;
20014;SDS011;61787;42.022;23.078;2023-04-25T04:06:16;7.37;;;6.23;;
20014;SDS011;61787;42.022;23.078;2023-04-25T04:07:18;6.93;;;6.33;;
20014;SDS011;61787;42.022;23.078;2023-04-25T04:08:19;7.13;;;5.33;;
20014;SDS011;61787;42.022;23.078;2023-04-25T04:09:21;5.70;;;5.20;;
20014;SDS011;61787;42.022;23.078;2023-04-25T04:10:23;6.20;;;5.00;;
20014;SDS011;61787;42.022;23.078;2023-04-25T04:11:24;6.30;;;5.70;;
20014;SDS011;61787;42.022;23.078;2023-04-25T04:12:26;5.57;;;4.90;;
20014;SDS011;61787;42.022;23.078;2023-04-25T04:13:28;5.80;;;5.13;;
20014;SDS011;61787;42.022;23.078;2023-04-25T04:14:30;5.67;;;5.07;;
20014;SDS011;61787;42.022;23.078;2023-04-25T04:15:31;5.70;;;5.10;;
20014;SDS011;61787;42.022;23.078;2023-04-25T04:16:34;5.40;;;4.90;;
20014;SDS011;61787;42.022;23.078;2023-04-25T04:17:36;6.23;;;5.10;;
20014;SDS011;61787;42.022;23.078;2023-04-25T04:18:37;6.60;;;5.23;;
20014;SDS011;61787;42.022;23.078;2023-04-25T04:19:39;6.03;;;5.53;;
20014;SDS011;61787;42.022;23.078;2023-04-25T04:20:41;5.50;;;5.00;;
20014;SDS011;61787;42.022;23.078;2023-04-25T04:21:42;7.30;;;5.77;;
20014;SDS011;61787;42.022;23.078;2023-04-25T04:22:44;6.57;;;5.17;;
20014;SDS011;61787;42.022;23.078;2023-04-25T04:23:45;6.50;;;5.50;;
20014;SDS011;61787;42.022;23.078;2023-04-25T04:24:48;6.97;;;5.67;;
20014;SDS011;61787;42.022;23.078;2023-04-25T04:25:51;7.43;;;5.77;;
20014;SDS011;61787;42.022;23.078;2023-04-25T04:26:53;6.30;;;5.70;;
20014;SDS011;61787;42.022;23.078;2023-04-25T04:27:54;7.00;;;6.30;;
20014;SDS011;61787;42.022;23.078;2023-04-25T04:28:56;6.30;;;5.70;;
20014;SDS011;61787;42.022;23.078;2023-04-25T04:30:00;8.03;;;6.47;;
20014;SDS011;61787;42.022;23.078;2023-04-25T04:31:02;6.70;;;5.97;;
20014;SDS011;61787;42.022;23.078;2023-04-25T04:32:05;7.60;;;5.93;;
20014;SDS011;61787;42.022;23.078;2023-04-25T04:33:06;7.37;;;5.90;;
20014;SDS011;61787;42.022;23.078;2023-04-25T04:34:08;6.87;;;5.80;;
20014;SDS011;61787;42.022;23.078;2023-04-25T04:35:10;8.60;;;5.80;;
20014;SDS011;61787;42.022;23.078;2023-04-25T04:36:12;6.37;;;5.77;;
20014;SDS011;61787;42.022;23.078;2023-04-25T04:37:14;6.80;;;6.10;;
20014;SDS011;61787;42.022;23.078;2023-04-25T04:38:16;6.50;;;5.90;;
20014;SDS011;61787;42.022;23.078;2023-04-25T04:39:17;6.57;;;5.93;;
20014;SDS011;61787;42.022;23.078;2023-04-25T04:40:19;6.57;;;5.90;;
20014;SDS011;61787;42.022;23.078;2023-04-25T04:41:21;7.77;;;6.40;;
20014;SDS011;61787;42.022;23.078;2023-04-25T04:42:23;8.77;;;6.07;;
20014;SDS011;61787;42.022;23.078;2023-04-25T04:43:25;9.73;;;6.93;;
20014;SDS011;61787;42.022;23.078;2023-04-25T04:44:27;9.53;;;6.70;;
20014;SDS011;61787;42.022;23.078;2023-04-25T04:45:29;11.00;;;6.00;;
20014;SDS011;61787;42.022;23.078;2023-04-25T04:46:31;6.90;;;6.13;;
20014;SDS011;61787;42.022;23.078;2023-04-25T04:47:33;9.33;;;6.47;;
20014;SDS011;61787;42.022;23.078;2023-04-25T04:48:35;9.23;;;6.53;;
20014;SDS011;61787;42.022;23.078;2023-04-25T04:49:36;7.30;;;6.33;;
20014;SDS011;61787;42.022;23.078;2023-04-25T04:50:38;8.17;;;6.00;;
20014;SDS011;61787;42.022;23.078;2023-04-25T04:51:40;6.73;;;5.97;;
20014;SDS011;61787;42.022;23.078;2023-04-25T04:52:48;8.43;;;6.27;;
20014;SDS011;61787;42.022;23.078;2023-04-25T04:53:50;6.27;;;5.63;;
20014;SDS011;61787;42.022;23.078;2023-04-25T04:54:52;6.63;;;5.93;;
20014;SDS011;61787;42.022;23.078;2023-04-25T04:55:55;9.73;;;6.33;;
20014;SDS011;61787;42.022;23.078;2023-04-25T04:56:57;7.90;;;6.40;;
20014;SDS011;61787;42.022;23.078;2023-04-25T04:58:00;6.77;;;6.03;;
20014;SDS011;61787;42.022;23.078;2023-04-25T04:59:05;6.57;;;5.97;;
20014;SDS011;61787;42.022;23.078;2023-04-25T05:00:08;7.43;;;6.43;;
20014;SDS011;61787;42.022;23.078;2023-04-25T05:01:12;6.90;;;6.20;;
20014;SDS011;61787;42.022;23.078;2023-04-25T05:02:14;7.27;;;6.57;;
20014;SDS011;61787;42.022;23.078;2023-04-25T05:03:16;7.77;;;7.07;;
20014;SDS011;61787;42.022;23.078;2023-04-25T05:04:18;9.73;;;7.17;;
20014;SDS011;61787;42.022;23.078;2023-04-25T05:05:20;15.17;;;7.97;;
20014;SDS011;61787;42.022;23.078;2023-04-25T05:06:21;11.20;;;7.20;;
20014;SDS011;61787;42.022;23.078;2023-04-25T05:07:23;9.37;;;7.40;;
20014;SDS011;61787;42.022;23.078;2023-04-25T05:08:24;7.87;;;7.03;;
20014;SDS011;61787;42.022;23.078;2023-04-25T05:09:26;8.83;;;6.53;;
20014;SDS011;61787;42.022;23.078;2023-04-25T05:10:28;8.07;;;6.23;;
20014;SDS011;61787;42.022;23.078;2023-04-25T05:11:33;11.33;;;7.83;;
20014;SDS011;61787;42.022;23.078;2023-04-25T05:12:34;8.70;;;7.73;;
20014;SDS011;61787;42.022;23.078;2023-04-25T05:13:37;10.80;;;7.90;;
20014;SDS011;61787;42.022;23.078;2023-04-25T05:14:39;10.03;;;7.70;;
20014;SDS011;61787;42.022;23.078;2023-04-25T05:15:40;11.60;;;7.70;;
20014;SDS011;61787;42.022;23.078;2023-04-25T05:16:42;13.40;;;8.23;;
20014;SDS011;61787;42.022;23.078;2023-04-25T05:17:44;9.60;;;6.93;;
20014;SDS011;61787;42.022;23.078;2023-04-25T05:18:46;8.17;;;6.60;;
20014;SDS011;61787;42.022;23.078;2023-04-25T05:19:49;5.93;;;5.33;;
20014;SDS011;61787;42.022;23.078;2023-04-25T05:20:51;10.03;;;6.30;;
20014;SDS011;61787;42.022;23.078;2023-04-25T05:21:52;13.30;;;6.43;;
20014;SDS011;61787;42.022;23.078;2023-04-25T05:22:54;5.37;;;4.83;;
20014;SDS011;61787;42.022;23.078;2023-04-25T05:23:56;8.67;;;5.70;;
20014;SDS011;61787;42.022;23.078;2023-04-25T05:24:57;5.87;;;4.43;;
20014;SDS011;61787;42.022;23.078;2023-04-25T05:25:59;11.77;;;5.57;;
20014;SDS011;61787;42.022;23.078;2023-04-25T05:27:01;8.50;;;5.37;;
20014;SDS011;61787;42.022;23.078;2023-04-25T05:28:03;6.53;;;5.13;;
20014;SDS011;61787;42.022;23.078;2023-04-25T05:29:06;6.77;;;5.37;;
20014;SDS011;61787;42.022;23.078;2023-04-25T05:30:07;15.73;;;6.33;;
20014;SDS011;61787;42.022;23.078;2023-04-25T05:31:10;11.37;;;6.70;;
20014;SDS011;61787;42.022;23.078;2023-04-25T05:32:12;9.43;;;6.60;;
20014;SDS011;61787;42.022;23.078;2023-04-25T05:33:14;7.03;;;6.30;;
20014;SDS011;61787;42.022;23.078;2023-04-25T05:34:16;7.53;;;6.43;;
20014;SDS011;61787;42.022;23.078;2023-04-25T05:35:18;8.27;;;6.57;;
20014;SDS011;61787;42.022;23.078;2023-04-25T05:36:19;10.87;;;5.33;;
20014;SDS011;61787;42.022;23.078;2023-04-25T05:37:21;8.10;;;5.17;;
20014;SDS011;61787;42.022;23.078;2023-04-25T05:38:22;9.07;;;4.47;;
20014;SDS011;61787;42.022;23.078;2023-04-25T05:39:24;4.70;;;4.03;;
20014;SDS011;61787;42.022;23.078;2023-04-25T05:40:26;6.00;;;3.80;;
20014;SDS011;61787;42.022;23.078;2023-04-25T05:41:27;4.13;;;3.73;;
20014;SDS011;61787;42.022;23.078;2023-04-25T05:42:29;5.67;;;4.23;;
20014;SDS011;61787;42.022;23.078;2023-04-25T05:43:30;6.83;;;4.97;;
20014;SDS011;61787;42.022;23.078;2023-04-25T05:44:32;6.13;;;5.00;;
20014;SDS011;61787;42.022;23.078;2023-04-25T05:45:33;13.13;;;5.30;;
20014;SDS011;61787;42.022;23.078;2023-04-25T05:46:35;9.07;;;5.93;;
20014;SDS011;61787;42.022;23.078;2023-04-25T05:47:37;6.90;;;4.20;;
20014;SDS011;61787;42.022;23.078;2023-04-25T05:48:39;4.67;;;4.17;;
20014;SDS011;61787;42.022;23.078;2023-04-25T05:49:40;4.57;;;4.17;;
20014;SDS011;61787;42.022;23.078;2023-04-25T05:50:42;4.37;;;3.93;;
20014;SDS011;61787;42.022;23.078;2023-04-25T05:51:44;5.00;;;4.47;;
20014;SDS011;61787;42.022;23.078;2023-04-25T05:52:45;5.00;;;4.00;;
20014;SDS011;61787;42.022;23.078;2023-04-25T05:53:47;8.00;;;4.33;;
20014;SDS011;61787;42.022;23.078;2023-04-25T05:54:49;5.83;;;4.47;;
20014;SDS011;61787;42.022;23.078;2023-04-25T05:55:50;6.30;;;3.93;;
20014;SDS011;61787;42.022;23.078;2023-04-25T05:56:52;6.87;;;4.00;;
20014;SDS011;61787;42.022;23.078;2023-04-25T05:57:54;5.00;;;4.27;;
20014;SDS011;61787;42.022;23.078;2023-04-25T05:58:55;4.63;;;4.23;;
20014;SDS011;61787;42.022;23.078;2023-04-25T05:59:57;4.47;;;4.07;;
20014;SDS011;61787;42.022;23.078;2023-04-25T06:00:59;5.03;;;4.30;;
20014;SDS011;61787;42.022;23.078;2023-04-25T06:02:00;4.53;;;4.13;;
20014;SDS011;61787;42.022;23.078;2023-04-25T06:03:02;6.70;;;4.20;;
20014;SDS011;61787;42.022;23.078;2023-04-25T06:04:04;7.37;;;4.57;;
20014;SDS011;61787;42.022;23.078;2023-04-25T06:05:07;6.70;;;5.20;;
20014;SDS011;61787;42.022;23.078;2023-04-25T06:06:09;4.60;;;4.20;;
20014;SDS011;61787;42.022;23.078;2023-04-25T06:07:11;4.07;;;3.67;;
20014;SDS011;61787;42.022;23.078;2023-04-25T06:08:12;4.77;;;3.97;;